Portada
METAR-TAF:

METAR-TAF

Aeroports :

Avinyó, França

latitud: 43-54-26N, longitud: 004-54-07E, altitud: 38 m

Observació

L'informe es va fer fa 45 minuts, a les 07:30 UTC
Vent 2 kt amb direcció variable
Temperatura 21°C
Humitat 64%
Pressió 1009 hPa
Visibilitat 10 km o més
sense núvols per sota de 1500 mi sense presència de cumulonimbus.

METAR: LFMV 060730Z AUTO VRB02KT CAVOK 21/14 Q1009 NOSIG

Hora: 10:15 (08:15 UTC)

Pronòstic

L'informe es va fer fa 6 hores i 15 minuts, a les 02:00 UTC
Pronòstic vàlid del 06 a les 03 UTC al 07 a les 03 UTC
Vent 7 kt del Oest
Visibilitat 10 km o més
Escasses núvols a una alçada de 4500 ft
Temporalment
l' 06 a les 15 UTC al 06 a les 19 UTC
Vent 10 kt del Sud/Sud-Oest amb ràfegues de 20 kt

TAF: LFMV 060200Z 0603/0703 26007KT 9999 FEW045 TEMPO 0615/0619 20010G20KT

Observacions i pronòstics meteorològics de més de 4000 aeroports (METAR i TAF).

Les estacions disponibles són els punts grocs i vermells al mapa.

Posi el ratolí al punt desitjat per veure el nom de l'estació.

Feu clic per veure les observacions i els pronòstics meteorològics.

Per canviar el mapa: feu clic els botons verds amb una creu de color negre per apropar; al botó verd amb un guió per allunyar la imatge; o en les fletxes verdes per a mapes adjacents.


METAR-TAF: